createdAt,value
2023-01-06T00:00:10.610Z,72.17
2023-01-06T00:02:59.751Z,72.30
2023-01-06T00:05:30.273Z,72.07
2023-01-06T00:08:00.429Z,72.15
2023-01-06T00:10:29.210Z,72.14
2023-01-06T00:12:58.294Z,72.06
2023-01-06T00:15:27.127Z,72.11
2023-01-06T00:17:56.500Z,72.03
2023-01-06T00:20:25.445Z,71.95
2023-01-06T00:22:54.922Z,71.83
2023-01-06T00:25:25.243Z,72.01
2023-01-06T00:27:56.191Z,72.01
2023-01-06T00:30:25.589Z,72.04
2023-01-06T00:32:54.112Z,71.89
2023-01-06T00:35:23.089Z,72.03
2023-01-06T00:37:51.955Z,71.82
2023-01-06T00:40:20.104Z,71.95
2023-01-06T00:42:49.019Z,71.82
2023-01-06T00:45:18.499Z,71.79
2023-01-06T00:47:47.726Z,71.96
2023-01-06T00:50:16.680Z,71.87
2023-01-06T00:52:48.614Z,71.61
2023-01-06T00:55:17.978Z,71.91
2023-01-06T00:57:47.890Z,71.94
2023-01-06T01:00:17.052Z,71.98
2023-01-06T04:02:43.969Z,70.45
2023-01-06T04:05:20.922Z,70.80
2023-01-06T04:07:50.369Z,70.62
2023-01-06T04:10:21.912Z,70.74
2023-01-06T04:12:53.403Z,70.54
2023-01-06T04:15:29.821Z,70.94
2023-01-06T04:18:01.119Z,70.94
2023-01-06T04:20:32.985Z,70.91
2023-01-06T04:23:15.818Z,70.94
2023-01-06T04:25:45.425Z,70.98
2023-01-06T04:28:22.148Z,71.01
2023-01-06T04:30:52.445Z,71.06
2023-01-06T04:33:21.911Z,71.03
2023-01-06T04:35:51.698Z,71.14
2023-01-06T04:38:21.976Z,71.00
2023-01-06T04:40:50.965Z,71.24
2023-01-06T04:43:20.189Z,71.36
2023-01-06T04:45:49.464Z,71.15
2023-01-06T04:48:18.494Z,71.14
2023-01-06T04:50:47.521Z,71.08
2023-01-06T04:53:16.714Z,71.10
2023-01-06T04:55:45.699Z,71.08
2023-01-06T04:58:18.089Z,70.88
2023-01-06T05:00:47.392Z,70.84
2023-01-06T05:03:16.462Z,70.46
2023-01-06T05:05:45.883Z,70.61
2023-01-06T05:08:14.987Z,70.83
2023-01-06T05:10:44.035Z,70.66
2023-01-06T05:13:13.106Z,70.52
2023-01-06T05:15:42.090Z,70.63
2023-01-06T05:18:11.329Z,70.56
2023-01-06T05:20:40.234Z,70.55
2023-01-06T05:23:09.355Z,70.49
2023-01-06T05:25:38.187Z,70.45
2023-01-06T05:28:07.239Z,70.56
2023-01-06T05:30:35.955Z,70.17
2023-01-06T05:33:04.753Z,70.48
2023-01-06T05:35:33.743Z,70.35
2023-01-06T05:38:03.096Z,70.13
2023-01-06T05:40:31.696Z,70.16
2023-01-06T05:43:00.622Z,70.20
2023-01-06T05:45:29.956Z,70.06
2023-01-06T05:47:58.217Z,70.25
2023-01-06T05:50:26.860Z,70.17
2023-01-06T05:52:56.032Z,70.20
2023-01-06T05:55:24.915Z,70.24
2023-01-06T05:57:53.910Z,70.00
2023-01-06T06:00:22.821Z,69.88
2023-01-06T06:02:50.917Z,70.01
2023-01-06T06:05:20.276Z,69.96
2023-01-06T06:07:58.047Z,69.91
2023-01-06T06:10:27.179Z,70.00
2023-01-06T06:12:56.025Z,70.01
2023-01-06T06:15:25.079Z,70.10
2023-01-06T06:17:54.176Z,70.09
2023-01-06T06:20:23.678Z,69.78
2023-01-06T06:22:52.905Z,69.94
2023-01-06T06:25:21.080Z,69.83
2023-01-06T06:27:50.028Z,69.88
2023-01-06T06:30:19.055Z,69.61
2023-01-06T06:32:48.492Z,69.82
2023-01-06T06:35:18.113Z,69.70
2023-01-06T06:37:47.001Z,69.88
2023-01-06T06:40:16.211Z,69.81
2023-01-06T06:42:51.095Z,69.80
2023-01-06T06:45:20.213Z,69.72
2023-01-06T06:47:49.245Z,69.94
2023-01-06T06:50:18.327Z,69.82
2023-01-06T06:52:47.228Z,69.80
2023-01-06T06:55:16.203Z,69.79
2023-01-06T06:57:45.305Z,69.61
2023-01-06T07:00:15.003Z,69.45
2023-01-06T07:02:44.858Z,69.50
2023-01-06T07:05:14.142Z,69.64
2023-01-06T07:07:43.562Z,69.51
2023-01-06T07:10:15.133Z,69.28
2023-01-06T07:12:44.162Z,69.43
2023-01-06T07:15:13.176Z,69.42
2023-01-06T07:17:42.482Z,69.34
2023-01-06T07:20:11.160Z,69.36
2023-01-06T07:22:41.339Z,69.31
2023-01-06T07:25:10.759Z,69.24
2023-01-06T07:27:39.926Z,69.26
2023-01-06T07:30:09.135Z,69.35
2023-01-06T07:32:37.872Z,69.09
2023-01-06T07:35:07.695Z,69.49
2023-01-06T07:37:36.477Z,69.37
2023-01-06T07:40:06.022Z,69.31
2023-01-06T07:42:36.756Z,69.32
2023-01-06T07:45:05.691Z,69.11
2023-01-06T07:47:34.292Z,69.22
2023-01-06T07:50:03.664Z,69.39
2023-01-06T07:52:32.529Z,69.22
2023-01-06T07:55:01.340Z,69.12
2023-01-06T07:57:30.723Z,69.17
2023-01-06T07:59:59.249Z,69.25
2023-01-06T08:02:27.687Z,69.29
2023-01-06T08:04:56.053Z,69.19
2023-01-06T08:07:24.378Z,69.05
2023-01-06T08:09:52.818Z,69.13
2023-01-06T08:12:20.873Z,68.99
2023-01-06T08:14:49.467Z,69.08
2023-01-06T08:17:17.868Z,69.06
2023-01-06T08:19:46.094Z,69.17
2023-01-06T08:22:15.243Z,68.92
2023-01-06T08:24:43.844Z,68.94
2023-01-06T08:27:12.149Z,68.93
2023-01-06T08:29:40.687Z,68.90
2023-01-06T08:32:11.085Z,68.95
2023-01-06T08:34:40.364Z,68.87
2023-01-06T08:37:08.668Z,68.77
2023-01-06T08:39:37.114Z,68.84
2023-01-06T08:42:05.736Z,68.63
2023-01-06T08:44:34.727Z,68.60
2023-01-06T08:47:03.086Z,68.75
2023-01-06T08:49:32.015Z,68.60
2023-01-06T08:52:01.041Z,68.43
2023-01-06T08:54:31.112Z,68.53
2023-01-06T08:56:59.420Z,68.33
2023-01-06T08:59:28.490Z,68.32
2023-01-06T09:01:57.939Z,68.38
2023-01-06T09:04:26.325Z,68.33
2023-01-06T09:06:56.823Z,68.24
2023-01-06T09:09:26.819Z,68.23
2023-01-06T09:11:55.830Z,68.28
2023-01-06T09:14:25.517Z,68.40
2023-01-06T09:16:54.923Z,68.32
2023-01-06T09:19:24.066Z,68.47
2023-01-06T09:21:52.826Z,68.32
2023-01-06T09:24:21.371Z,68.39
2023-01-06T09:26:50.796Z,68.29
2023-01-06T09:29:20.592Z,68.23
2023-01-06T09:31:49.602Z,68.21
2023-01-06T09:34:18.720Z,68.21
2023-01-06T09:36:47.057Z,68.32
2023-01-06T09:39:15.418Z,68.08
2023-01-06T09:41:59.123Z,68.24
2023-01-06T09:44:56.632Z,67.97
2023-01-06T09:47:38.094Z,68.17
2023-01-06T09:50:21.981Z,68.07
2023-01-06T09:52:56.347Z,68.15
2023-01-06T09:55:37.510Z,68.05
2023-01-06T09:58:16.876Z,68.32
2023-01-06T10:00:53.259Z,68.13
2023-01-06T10:03:27.261Z,68.28
2023-01-06T10:05:55.301Z,68.09
2023-01-06T10:08:51.302Z,68.08
2023-01-06T10:11:28.804Z,68.09
2023-01-06T10:14:16.557Z,67.90
2023-01-06T10:16:51.667Z,68.00
2023-01-06T10:19:31.801Z,67.77
2023-01-06T10:22:14.498Z,67.95
2023-01-06T10:25:02.886Z,67.73
2023-01-06T10:27:41.948Z,67.80
2023-01-06T10:30:30.557Z,67.96
2023-01-06T10:33:00.391Z,67.89
2023-01-06T10:35:30.154Z,67.83
2023-01-06T10:38:04.001Z,67.87
2023-01-06T10:40:33.942Z,67.77
2023-01-06T10:43:10.796Z,67.86
2023-01-06T10:45:45.671Z,67.77
2023-01-06T10:48:21.883Z,67.99
2023-01-06T10:50:51.292Z,67.62
2023-01-06T10:53:20.337Z,67.67
2023-01-06T10:55:52.621Z,67.57
2023-01-06T10:58:36.006Z,67.55
2023-01-06T11:01:18.440Z,67.56
2023-01-06T11:04:04.232Z,67.54
2023-01-06T11:06:32.809Z,67.76
2023-01-06T11:09:08.343Z,67.54
2023-01-06T11:11:48.798Z,67.53
2023-01-06T11:14:21.279Z,67.52
2023-01-06T11:16:58.220Z,67.44
2023-01-06T11:19:37.497Z,67.36
2023-01-06T11:22:58.031Z,67.49
2023-01-06T11:25:32.688Z,67.66
2023-01-06T11:28:21.789Z,67.56
2023-01-06T11:30:53.720Z,67.26
2023-01-06T11:33:25.383Z,67.44
2023-01-06T11:35:55.860Z,67.38
2023-01-06T11:38:25.271Z,67.47
2023-01-06T11:40:55.141Z,67.38
2023-01-06T11:43:33.775Z,67.51
2023-01-06T11:46:08.309Z,67.28
2023-01-06T11:48:57.263Z,67.40
2023-01-06T11:51:42.127Z,67.36
2023-01-06T11:54:26.786Z,67.28
2023-01-06T11:57:19.056Z,67.68
2023-01-06T12:00:17.696Z,67.58
2023-01-06T12:03:08.817Z,67.49
2023-01-06T12:05:52.331Z,67.44
2023-01-06T12:08:25.695Z,67.67
2023-01-06T12:11:03.802Z,67.59
2023-01-06T12:13:44.309Z,67.61
2023-01-06T12:16:24.427Z,67.60
2023-01-06T12:18:53.920Z,67.54
2023-01-06T12:21:31.243Z,67.56
2023-01-06T12:24:05.035Z,67.47
2023-01-06T12:26:36.371Z,67.50
2023-01-06T12:29:06.731Z,67.34
2023-01-06T12:32:00.570Z,67.45
2023-01-06T12:34:37.792Z,67.51
2023-01-06T12:37:32.073Z,67.40
2023-01-06T12:40:25.830Z,67.48
2023-01-06T12:43:17.945Z,67.24
2023-01-06T12:46:06.548Z,67.31
2023-01-06T12:48:44.940Z,67.36
2023-01-06T12:51:35.331Z,67.41
2023-01-06T12:54:08.934Z,67.23
2023-01-06T12:56:50.227Z,67.27
2023-01-06T12:59:26.850Z,67.40
2023-01-06T13:02:17.607Z,67.33
2023-01-06T13:05:05.980Z,67.54
2023-01-06T13:07:48.484Z,67.19
2023-01-06T13:10:37.969Z,67.46
2023-01-06T13:13:41.938Z,67.41
2023-01-06T13:16:27.525Z,67.39
2023-01-06T13:19:04.298Z,67.37
2023-01-06T13:21:34.290Z,67.37
2023-01-06T13:24:22.432Z,67.21
2023-01-06T13:27:27.699Z,67.14
2023-01-06T13:30:19.923Z,67.25
2023-01-06T13:33:04.840Z,67.29
2023-01-06T13:36:12.958Z,67.34
2023-01-06T13:39:04.459Z,67.36
2023-01-06T13:41:38.493Z,67.30
2023-01-06T13:44:16.625Z,67.43
2023-01-06T13:46:47.766Z,67.32
2023-01-06T13:49:17.022Z,67.36
2023-01-06T13:51:48.085Z,67.35
2023-01-06T13:54:41.614Z,67.35
2023-01-06T13:57:22.047Z,67.30
2023-01-06T13:59:53.131Z,67.06
2023-01-06T14:02:40.597Z,67.30
2023-01-06T14:05:23.675Z,67.20
2023-01-06T14:08:01.545Z,67.32
2023-01-06T14:10:41.272Z,67.19
2023-01-06T14:13:27.406Z,67.29
2023-01-06T14:16:22.999Z,67.27
2023-01-06T14:19:04.471Z,67.17
2023-01-06T14:21:33.510Z,67.32
2023-01-06T14:24:08.516Z,67.27
2023-01-06T14:26:48.989Z,67.15
2023-01-06T14:29:36.932Z,67.28
2023-01-06T14:32:12.006Z,67.42
2023-01-06T14:34:52.546Z,67.35
2023-01-06T14:37:29.676Z,67.33
2023-01-06T14:40:04.265Z,67.45
2023-01-06T14:42:42.749Z,67.47
2023-01-06T14:45:30.057Z,67.48
2023-01-06T14:48:06.403Z,67.62
2023-01-06T14:50:46.975Z,67.72
2023-01-06T14:53:38.286Z,67.57
2023-01-06T14:56:07.423Z,67.53
2023-01-06T14:58:37.178Z,67.49
2023-01-06T15:01:25.453Z,67.60
2023-01-06T15:03:59.771Z,67.51
2023-01-06T15:06:30.321Z,67.95
2023-01-06T15:09:32.049Z,67.61
2023-01-06T15:12:00.558Z,67.80
2023-01-06T15:14:32.501Z,67.78
2023-01-06T15:17:04.241Z,67.85
2023-01-06T15:19:34.867Z,67.92
2023-01-06T15:22:08.661Z,68.00
2023-01-06T15:24:43.125Z,68.17
2023-01-06T15:27:17.408Z,68.15
2023-01-06T15:29:55.523Z,68.18
2023-01-06T15:32:27.444Z,68.15
2023-01-06T15:34:59.938Z,68.07
2023-01-06T15:37:35.205Z,68.06
2023-01-06T15:40:08.213Z,68.07
2023-01-06T15:42:37.992Z,68.26
2023-01-06T15:45:08.029Z,68.25
2023-01-06T15:47:43.394Z,68.30
2023-01-06T15:50:25.240Z,68.32
2023-01-06T15:52:58.739Z,68.39
2023-01-06T15:55:33.065Z,68.39
2023-01-06T15:58:27.851Z,68.55
2023-01-06T16:01:01.484Z,68.28
2023-01-06T16:03:32.917Z,68.60
2023-01-06T16:06:11.746Z,68.61
2023-01-06T16:08:43.846Z,68.47
2023-01-06T16:11:38.272Z,68.69
2023-01-06T16:14:36.412Z,68.91
2023-01-06T16:17:33.475Z,68.41
2023-01-06T16:20:21.175Z,68.44
2023-01-06T16:22:55.248Z,68.42
2023-01-06T16:25:42.556Z,68.57
2023-01-06T16:28:20.380Z,68.39
2023-01-06T16:31:07.353Z,68.39
2023-01-06T16:33:46.116Z,68.64
2023-01-06T16:36:18.461Z,68.49
2023-01-06T16:38:47.956Z,68.70
2023-01-06T16:41:20.058Z,68.69
2023-01-06T16:43:48.653Z,68.65
2023-01-06T16:46:25.240Z,68.78
2023-01-06T16:49:05.882Z,68.73
2023-01-06T16:51:34.306Z,68.51
2023-01-06T16:54:10.849Z,68.50
2023-01-06T16:56:40.060Z,68.80
2023-01-06T16:59:17.464Z,68.65
2023-01-06T17:01:47.784Z,68.78
2023-01-06T17:04:16.338Z,68.81
2023-01-06T17:06:45.817Z,68.69
2023-01-06T17:09:21.168Z,68.61
2023-01-06T17:11:52.974Z,68.72
2023-01-06T17:14:23.066Z,68.55
2023-01-06T17:16:51.524Z,68.79
2023-01-06T17:19:34.348Z,68.59
2023-01-06T17:22:26.041Z,68.56
2023-01-06T17:24:59.925Z,68.80
2023-01-06T17:27:30.712Z,68.83
2023-01-06T17:30:02.748Z,68.86
2023-01-06T17:32:40.238Z,68.82
2023-01-06T17:35:29.986Z,68.86
2023-01-06T17:38:00.811Z,68.74
2023-01-06T17:40:38.722Z,68.79
2023-01-06T17:43:22.850Z,68.85
2023-01-06T17:45:51.415Z,68.81
2023-01-06T17:48:19.764Z,68.96
2023-01-06T17:50:51.175Z,68.91
2023-01-06T17:53:46.409Z,68.83
2023-01-06T17:56:14.561Z,68.92
2023-01-06T17:58:44.940Z,69.08
2023-01-06T18:01:20.020Z,69.01
2023-01-06T18:03:49.194Z,68.94
2023-01-06T18:06:32.641Z,68.83
2023-01-06T18:09:10.219Z,69.17
2023-01-06T18:11:46.579Z,69.07
2023-01-06T18:14:39.073Z,69.00
2023-01-06T18:17:22.421Z,69.06
2023-01-06T18:19:51.581Z,69.10
2023-01-06T18:22:22.525Z,69.16
2023-01-06T18:24:53.306Z,69.29
2023-01-06T18:27:33.557Z,69.10
2023-01-06T18:30:23.079Z,69.17
2023-01-06T18:32:52.151Z,69.00
2023-01-06T18:35:25.047Z,69.01
2023-01-06T18:37:53.941Z,68.95
2023-01-06T18:40:24.800Z,69.18
2023-01-06T18:42:54.756Z,69.00
2023-01-06T18:45:26.724Z,69.31
2023-01-06T18:48:02.799Z,69.19
2023-01-06T18:50:38.278Z,69.13
2023-01-06T18:53:09.455Z,69.42
2023-01-06T18:55:40.321Z,69.44
2023-01-06T18:58:15.025Z,69.37
2023-01-06T19:00:51.693Z,69.08
2023-01-06T19:03:26.752Z,69.27
2023-01-06T19:06:08.643Z,69.14
2023-01-06T19:08:40.003Z,69.23
2023-01-06T19:11:21.838Z,69.27
2023-01-06T19:13:52.912Z,69.44
2023-01-06T19:16:29.443Z,69.34
2023-01-06T19:19:29.162Z,69.39
2023-01-06T19:22:24.037Z,69.55
2023-01-06T19:25:03.953Z,69.36
2023-01-06T19:27:45.784Z,69.52
2023-01-06T19:30:13.924Z,69.66
2023-01-06T19:32:42.233Z,69.58
2023-01-06T19:35:21.164Z,69.52
2023-01-06T19:37:55.533Z,69.61
2023-01-06T19:40:29.232Z,69.67
2023-01-06T19:43:25.834Z,69.75
2023-01-06T19:45:54.056Z,69.79
2023-01-06T19:48:30.889Z,69.73
2023-01-06T19:51:12.782Z,69.84
2023-01-06T19:53:45.001Z,69.67
2023-01-06T19:56:23.531Z,69.67
2023-01-06T19:58:54.464Z,69.57
2023-01-06T20:01:23.221Z,69.79
2023-01-06T20:03:54.169Z,70.16
2023-01-06T20:06:24.263Z,69.98
2023-01-06T20:08:53.992Z,70.09
2023-01-06T20:11:23.467Z,70.06
2023-01-06T20:13:52.278Z,70.07
2023-01-06T20:16:20.568Z,70.03
2023-01-06T20:18:50.747Z,70.15
2023-01-06T20:21:20.301Z,70.19
2023-01-06T20:23:48.531Z,70.13
2023-01-06T20:26:16.651Z,69.94
2023-01-06T20:28:44.935Z,70.13
2023-01-06T20:31:13.402Z,70.07
2023-01-06T20:33:41.589Z,69.92
2023-01-06T20:36:09.736Z,70.07
2023-01-06T20:38:37.816Z,70.16
2023-01-06T20:41:06.923Z,70.19
2023-01-06T20:43:35.724Z,70.15
2023-01-06T20:46:04.392Z,70.13
2023-01-06T20:48:33.150Z,70.34
2023-01-06T20:51:01.712Z,70.21
2023-01-06T20:53:30.050Z,70.42
2023-01-06T20:55:58.423Z,70.19
2023-01-06T20:58:27.878Z,70.19
2023-01-06T21:00:56.352Z,70.21
2023-01-06T21:03:24.957Z,70.26
2023-01-06T21:05:54.265Z,70.38
2023-01-06T21:08:23.060Z,70.15
2023-01-06T21:10:51.564Z,70.30
2023-01-06T21:13:23.930Z,70.45
2023-01-06T21:15:53.343Z,70.40
2023-01-06T21:18:21.776Z,70.25
2023-01-06T21:20:50.665Z,70.34
2023-01-06T21:23:19.232Z,70.45
2023-01-06T21:25:48.118Z,70.43
2023-01-06T21:28:16.566Z,70.39
2023-01-06T21:30:45.455Z,70.55
2023-01-06T21:33:15.408Z,70.61
2023-01-06T21:35:46.987Z,70.30
2023-01-06T21:38:15.608Z,70.48
2023-01-06T21:40:46.626Z,70.50
2023-01-06T21:43:14.926Z,70.37
2023-01-06T21:45:45.128Z,70.26
2023-01-06T21:48:15.146Z,70.62
2023-01-06T21:50:46.299Z,70.73
2023-01-06T21:53:15.166Z,70.45
2023-01-06T21:55:44.317Z,70.81
2023-01-06T21:58:13.187Z,70.61
2023-01-06T22:00:41.771Z,70.57
2023-01-06T22:03:10.298Z,70.45
2023-01-06T22:05:39.226Z,70.37
2023-01-06T22:08:08.694Z,70.46
2023-01-06T22:10:42.317Z,70.49
2023-01-06T22:13:22.163Z,70.53
2023-01-06T22:15:52.499Z,70.41
2023-01-06T22:18:23.663Z,70.59
2023-01-06T22:20:53.867Z,70.58
2023-01-06T22:23:24.892Z,70.44
2023-01-06T22:25:53.894Z,70.78
2023-01-06T22:28:24.344Z,70.59
2023-01-06T22:30:55.715Z,70.65
2023-01-06T22:33:25.542Z,70.64
2023-01-06T22:35:58.816Z,70.61
2023-01-06T22:38:28.256Z,70.60
2023-01-06T22:40:57.244Z,70.56
2023-01-06T22:43:25.907Z,70.96
2023-01-06T22:45:58.163Z,70.93
2023-01-06T22:48:26.749Z,70.68
2023-01-06T22:51:01.060Z,70.97
2023-01-06T22:53:31.663Z,70.87
2023-01-06T22:56:10.311Z,70.63
2023-01-06T22:58:40.288Z,70.80
2023-01-06T23:01:10.086Z,71.02
2023-01-06T23:03:39.574Z,70.87
2023-01-06T23:06:11.834Z,70.85
2023-01-06T23:08:58.478Z,70.85
2023-01-06T23:11:31.948Z,70.94
2023-01-06T23:14:01.454Z,70.80
2023-01-06T23:16:31.505Z,70.87
2023-01-06T23:19:00.370Z,70.86
2023-01-06T23:21:31.938Z,70.86
2023-01-06T23:24:00.853Z,71.02
2023-01-06T23:26:34.299Z,70.90
2023-01-06T23:29:03.124Z,71.06
2023-01-06T23:31:35.696Z,71.20
2023-01-06T23:34:09.160Z,71.09
2023-01-06T23:36:38.988Z,71.03
2023-01-06T23:39:09.540Z,71.28
2023-01-06T23:41:39.379Z,71.12
2023-01-06T23:44:08.151Z,70.98
2023-01-06T23:46:39.652Z,71.22
2023-01-06T23:49:12.178Z,71.07
2023-01-06T23:51:41.447Z,71.13
2023-01-06T23:54:12.682Z,71.12
2023-01-06T23:56:41.821Z,71.28
2023-01-06T23:59:12.678Z,71.34
